La Coruna, Spain
Current Conditions -  °F | °C
As of 1:00 AM on Saturday 20 Dec 2014 (Local Time) from LECO Reporting Station
Drizzle Drizzle  
Wind Chill: 11°   Ceiling: 1500
Heat Index: 11°   Visibility: 3mi
Dew Point: 10°   Wind: 5mph
Humidity: 94%   Direction: 160°SSE
Pressure: 30.53"   Gusts: NA
Location:  43.37°N, 8.4°W
Report Text: LECO 200000Z 16004KT 120V200 5000 -DZ BKN015 11/10 Q1034 TEMPO 3000 DZ BKN012
Loading
Personal Weather Stations






























Interactive Weather Map New forecast layout! Learn more

10-Day Weather Forecast

Advertisements
Track Severe Weather on mobile